SCOT34 YBOK-YBOK
Flight info
| Callsign | SCOT34 |
|---|---|
| Flight time | 0h 0m |
| Altitude | 2000 |
| Route | DCT |
| Aircraft | EC35/L-SDFGRY/LB1 |
Departure
| Time | 2026-04-25 04:21 |
|---|---|
| Airport | Oakey Army Aviation Centre (YBOK) |
Arrival
| Time | 2026-04-25 04:22 |
|---|---|
| Airport | Oakey Army Aviation Centre (YBOK) |
| Time | Latitude | Longitude | Altitude | Speed | Heading |
|---|---|---|---|---|---|
| 2026-04-25 04:02 | -27.41291 | 151.73409 | 1339 ft | 0 kts | 98° |
| 2026-04-25 04:15 | -27.41288 | 151.73443 | 1346 ft | 9 kts | 37° |
| 2026-04-25 04:15 | -27.41248 | 151.73452 | 1345 ft | 4 kts | 15° |
| 2026-04-25 04:16 | -27.41217 | 151.73399 | 1344 ft | 8 kts | 286° |
| 2026-04-25 04:16 | -27.41205 | 151.73340 | 1346 ft | 10 kts | 279° |
| 2026-04-25 04:16 | -27.41192 | 151.73254 | 1347 ft | 12 kts | 287° |
| 2026-04-25 04:16 | -27.41179 | 151.73169 | 1346 ft | 11 kts | 285° |
| 2026-04-25 04:17 | -27.41162 | 151.73081 | 1346 ft | 14 kts | 273° |
| 2026-04-25 04:17 | -27.41150 | 151.72962 | 1349 ft | 12 kts | 298° |
| 2026-04-25 04:17 | -27.41128 | 151.72850 | 1350 ft | 17 kts | 272° |
| 2026-04-25 04:17 | -27.41110 | 151.72722 | 1346 ft | 16 kts | 288° |
| 2026-04-25 04:18 | -27.41099 | 151.72613 | 1347 ft | 13 kts | 299° |
| 2026-04-25 04:18 | -27.41083 | 151.72513 | 1353 ft | 8 kts | 4° |
| 2026-04-25 04:18 | -27.41050 | 151.72487 | 1352 ft | 3 kts | 340° |
| 2026-04-25 04:18 | -27.41036 | 151.72478 | 1344 ft | 0 kts | 342° |
| 2026-04-25 04:20 | -27.41010 | 151.72465 | 1346 ft | 10 kts | 17° |
| 2026-04-25 04:20 | -27.40928 | 151.72522 | 1352 ft | 21 kts | 90° |
| 2026-04-25 04:21 | -27.40971 | 151.72814 | 1396 ft | 50 kts | 100° |
| 2026-04-25 04:21 | -27.41038 | 151.73236 | 1512 ft | 57 kts | 101° |
| 2026-04-25 04:21 | -27.41104 | 151.73678 | 1678 ft | 51 kts | 90° |
| 2026-04-25 04:21 | -27.40758 | 151.73678 | 1984 ft | 84 kts | 305° |
| 2026-04-25 04:22 | -27.40609 | 151.72979 | 1906 ft | 98 kts | 271° |
| 2026-04-25 04:22 | -27.40505 | 151.72289 | 1625 ft | 75 kts | 230° |
| 2026-04-25 04:22 | -27.40775 | 151.72077 | 1494 ft | 45 kts | 126° |
| 2026-04-25 04:22 | -27.40897 | 151.72380 | 1413 ft | 33 kts | 98° |
| 2026-04-25 04:23 | -27.40920 | 151.72514 | 1347 ft | 10 kts | 102° |
| 2026-04-25 04:23 | -27.40922 | 151.72527 | 1343 ft | 0 kts | 100° |
| 2026-04-25 04:23 | -27.40951 | 151.72692 | 1414 ft | 38 kts | 100° |
| 2026-04-25 04:24 | -27.40997 | 151.72985 | 1485 ft | 44 kts | 101° |
| 2026-04-25 04:24 | -27.41074 | 151.73452 | 1489 ft | 73 kts | 99° |
| 2026-04-25 04:24 | -27.40785 | 151.73656 | 1653 ft | 101 kts | 300° |
| 2026-04-25 04:24 | -27.40625 | 151.72808 | 1633 ft | 109 kts | 272° |
| 2026-04-25 04:25 | -27.40623 | 151.72104 | 1636 ft | 56 kts | 197° |
| 2026-04-25 04:25 | -27.40878 | 151.72272 | 1446 ft | 49 kts | 94° |
| 2026-04-25 04:25 | -27.40916 | 151.72486 | 1354 ft | 12 kts | 98° |
| 2026-04-25 04:25 | -27.40924 | 151.72531 | 1371 ft | 18 kts | 104° |
| 2026-04-25 04:26 | -27.40986 | 151.72890 | 1467 ft | 61 kts | 96° |
| 2026-04-25 04:26 | -27.41068 | 151.73406 | 1561 ft | 69 kts | 101° |
| 2026-04-25 04:26 | -27.40891 | 151.73683 | 1700 ft | 95 kts | 328° |
| 2026-04-25 04:26 | -27.40673 | 151.72919 | 1613 ft | 100 kts | 272° |
| 2026-04-25 04:27 | -27.40619 | 151.72249 | 1518 ft | 64 kts | 221° |
| 2026-04-25 04:27 | -27.40841 | 151.72242 | 1480 ft | 36 kts | 108° |
| 2026-04-25 04:27 | -27.40904 | 151.72421 | 1380 ft | 18 kts | 101° |
| 2026-04-25 04:27 | -27.40918 | 151.72510 | 1343 ft | 8 kts | 106° |
| 2026-04-25 04:28 | -27.40972 | 151.72828 | 1404 ft | 71 kts | 96° |
| 2026-04-25 04:28 | -27.41071 | 151.73416 | 1501 ft | 78 kts | 92° |
| 2026-04-25 04:28 | -27.40870 | 151.73669 | 1493 ft | 98 kts | 301° |
| 2026-04-25 04:28 | -27.40701 | 151.72880 | 1495 ft | 108 kts | 278° |
| 2026-04-25 04:29 | -27.40738 | 151.72221 | 1515 ft | 51 kts | 168° |
| 2026-04-25 04:29 | -27.40911 | 151.72453 | 1381 ft | 28 kts | 95° |
| 2026-04-25 04:29 | -27.40924 | 151.72543 | 1347 ft | 0 kts | 98° |
| 2026-04-25 04:29 | -27.40965 | 151.72801 | 1425 ft | 60 kts | 103° |
| 2026-04-25 04:30 | -27.41062 | 151.73396 | 1489 ft | 89 kts | 101° |
| 2026-04-25 04:30 | -27.40786 | 151.73620 | 1533 ft | 106 kts | 298° |
| 2026-04-25 04:30 | -27.40628 | 151.72742 | 1546 ft | 115 kts | 275° |
| 2026-04-25 04:30 | -27.40703 | 151.72072 | 1630 ft | 54 kts | 175° |
| 2026-04-25 04:31 | -27.40888 | 151.72323 | 1420 ft | 49 kts | 94° |
| 2026-04-25 04:31 | -27.40917 | 151.72501 | 1346 ft | 1 kts | 99° |
| 2026-04-25 04:31 | -27.40929 | 151.72558 | 1393 ft | 38 kts | 113° |
| 2026-04-25 04:31 | -27.40999 | 151.72989 | 1517 ft | 59 kts | 98° |
| 2026-04-25 04:32 | -27.41084 | 151.73476 | 1564 ft | 73 kts | 102° |
| 2026-04-25 04:32 | -27.40863 | 151.73775 | 1750 ft | 87 kts | 338° |
| 2026-04-25 04:32 | -27.40651 | 151.73055 | 1641 ft | 107 kts | 277° |
| 2026-04-25 04:32 | -27.40581 | 151.72266 | 1566 ft | 78 kts | 233° |
| 2026-04-25 04:33 | -27.40801 | 151.72012 | 1519 ft | 44 kts | 138° |
| 2026-04-25 04:33 | -27.40904 | 151.72409 | 1382 ft | 50 kts | 92° |
| 2026-04-25 04:33 | -27.40930 | 151.72568 | 1352 ft | 0 kts | 97° |
| 2026-04-25 04:33 | -27.40942 | 151.72646 | 1411 ft | 43 kts | 110° |
| 2026-04-25 04:34 | -27.40999 | 151.72948 | 1470 ft | 69 kts | 104° |
| 2026-04-25 04:34 | -27.41097 | 151.73796 | 1616 ft | 86 kts | 77° |
| 2026-04-25 04:34 | -27.40785 | 151.73776 | 1708 ft | 100 kts | 302° |
| 2026-04-25 04:34 | -27.40628 | 151.72892 | 1605 ft | 125 kts | 278° |
| 2026-04-25 04:35 | -27.40693 | 151.72163 | 1716 ft | 50 kts | 166° |
| 2026-04-25 04:35 | -27.40899 | 151.72402 | 1441 ft | 22 kts | 97° |
| 2026-04-25 04:35 | -27.40917 | 151.72501 | 1348 ft | 10 kts | 102° |
| 2026-04-25 04:35 | -27.40932 | 151.72579 | 1379 ft | 31 kts | 104° |
| 2026-04-25 04:36 | -27.40972 | 151.72824 | 1451 ft | 57 kts | 101° |
| 2026-04-25 04:36 | -27.41052 | 151.73301 | 1540 ft | 63 kts | 101° |
| 2026-04-25 04:36 | -27.41045 | 151.73777 | 1621 ft | 70 kts | 45° |
| 2026-04-25 04:36 | -27.40699 | 151.73378 | 1547 ft | 102 kts | 282° |
| 2026-04-25 04:37 | -27.40587 | 151.72529 | 1517 ft | 116 kts | 277° |
| 2026-04-25 04:37 | -27.40856 | 151.72186 | 1472 ft | 62 kts | 108° |
| 2026-04-25 04:37 | -27.40914 | 151.72476 | 1353 ft | 8 kts | 96° |
| 2026-04-25 04:37 | -27.40916 | 151.72498 | 1346 ft | 0 kts | 104° |
| 2026-04-25 04:38 | -27.40940 | 151.72627 | 1414 ft | 47 kts | 102° |
| 2026-04-25 04:38 | -27.41020 | 151.73139 | 1453 ft | 76 kts | 99° |
| 2026-04-25 04:38 | -27.41087 | 151.73743 | 1558 ft | 78 kts | 63° |
| 2026-04-25 04:39 | -27.40741 | 151.73388 | 1529 ft | 110 kts | 281° |
| 2026-04-25 04:39 | -27.40605 | 151.72478 | 1511 ft | 124 kts | 274° |
| 2026-04-25 04:39 | -27.40880 | 151.72330 | 1443 ft | 55 kts | 103° |
| 2026-04-25 04:39 | -27.40925 | 151.72549 | 1346 ft | 9 kts | 98° |
| 2026-04-25 04:40 | -27.40945 | 151.72669 | 1411 ft | 44 kts | 99° |
| 2026-04-25 04:40 | -27.41016 | 151.73095 | 1535 ft | 60 kts | 100° |
| 2026-04-25 04:40 | -27.41088 | 151.73557 | 1637 ft | 60 kts | 97° |
| 2026-04-25 04:40 | -27.40758 | 151.73603 | 1672 ft | 81 kts | 292° |
| 2026-04-25 04:41 | -27.40655 | 151.73024 | 1620 ft | 75 kts | 281° |
| 2026-04-25 04:41 | -27.40554 | 151.72463 | 1600 ft | 66 kts | 281° |
| 2026-04-25 04:41 | -27.40562 | 151.72022 | 1560 ft | 45 kts | 214° |
| 2026-04-25 04:41 | -27.40830 | 151.72065 | 1534 ft | 51 kts | 119° |
| 2026-04-25 04:42 | -27.40910 | 151.72444 | 1367 ft | 35 kts | 94° |
| 2026-04-25 04:42 | -27.40926 | 151.72540 | 1350 ft | 0 kts | 96° |
| 2026-04-25 04:42 | -27.40926 | 151.72546 | 1351 ft | 10 kts | 105° |
| 2026-04-25 04:42 | -27.40979 | 151.72840 | 1432 ft | 65 kts | 102° |
| 2026-04-25 04:43 | -27.41066 | 151.73428 | 1477 ft | 85 kts | 97° |
| 2026-04-25 04:43 | -27.40787 | 151.73566 | 1470 ft | 115 kts | 288° |
| 2026-04-25 04:43 | -27.40627 | 151.72573 | 1520 ft | 137 kts | 278° |
| 2026-04-25 04:43 | -27.40791 | 151.71867 | 1770 ft | 66 kts | 141° |
| 2026-04-25 04:44 | -27.40904 | 151.72440 | 1428 ft | 56 kts | 92° |
| 2026-04-25 04:44 | -27.40942 | 151.72641 | 1357 ft | 17 kts | 99° |
| 2026-04-25 04:44 | -27.40962 | 151.72768 | 1342 ft | 17 kts | 99° |
| 2026-04-25 04:44 | -27.41002 | 151.72832 | 1344 ft | 7 kts | 130° |
| 2026-04-25 04:45 | -27.41021 | 151.72844 | 1337 ft | 0 kts | 122° |
| 2026-04-25 04:45 | -27.41031 | 151.72840 | 1339 ft | 12 kts | 161° |
| 2026-04-25 04:45 | -27.41129 | 151.72871 | 1351 ft | 20 kts | 105° |
| 2026-04-25 04:46 | -27.41167 | 151.73087 | 1368 ft | 31 kts | 98° |
| 2026-04-25 04:46 | -27.41189 | 151.73260 | 1369 ft | 16 kts | 120° |
| 2026-04-25 04:46 | -27.41278 | 151.73312 | 1350 ft | 7 kts | 101° |
| 2026-04-25 04:46 | -27.41280 | 151.73332 | 1338 ft | 0 kts | 104° |
| 2026-04-25 04:49 | -27.41280 | 151.73333 | 1343 ft | 0 kts | 109° |
| 2026-04-25 04:49 | -27.41280 | 151.73330 | 1342 ft | 0 kts | 111° |
| 2026-04-25 04:50 | -27.41282 | 151.73330 | 1344 ft | 0 kts | 115° |
| 2026-04-25 04:50 | -27.41283 | 151.73331 | 1346 ft | 0 kts | 115° |
| 2026-04-25 04:50 | -27.41284 | 151.73330 | 1346 ft | 1 kts | 112° |
| 2026-04-25 04:50 | -27.41290 | 151.73331 | 1350 ft | 4 kts | 110° |
| 2026-04-25 04:51 | -27.41316 | 151.73329 | 1353 ft | 1 kts | 104° |
| 2026-04-25 04:51 | -27.41320 | 151.73363 | 1357 ft | 3 kts | 105° |
| 2026-04-25 04:51 | -27.41294 | 151.73370 | 1357 ft | 4 kts | 98° |
| 2026-04-25 04:51 | -27.41286 | 151.73351 | 1352 ft | 3 kts | 108° |
| 2026-04-25 04:52 | -27.41281 | 151.73331 | 1349 ft | 0 kts | 107° |
| 2026-04-25 04:52 | -27.41283 | 151.73330 | 1355 ft | 1 kts | 334° |
| 2026-04-25 04:52 | -27.41281 | 151.73327 | 1349 ft | 1 kts | 109° |
| 2026-04-25 04:52 | -27.41293 | 151.73380 | 1365 ft | 11 kts | 94° |
| 2026-04-25 04:53 | -27.41266 | 151.73443 | 1365 ft | 10 kts | 42° |
| 2026-04-25 04:53 | -27.41220 | 151.73413 | 1342 ft | 9 kts | 294° |
| 2026-04-25 04:53 | -27.41205 | 151.73321 | 1345 ft | 12 kts | 285° |
| 2026-04-25 04:53 | -27.41191 | 151.73221 | 1349 ft | 13 kts | 290° |
| 2026-04-25 04:54 | -27.41172 | 151.73099 | 1351 ft | 18 kts | 288° |
| 2026-04-25 04:54 | -27.41153 | 151.72967 | 1352 ft | 15 kts | 287° |
| 2026-04-25 04:54 | -27.41140 | 151.72853 | 1352 ft | 15 kts | 348° |
| 2026-04-25 04:54 | -27.41062 | 151.72840 | 1356 ft | 7 kts | 10° |
| 2026-04-25 04:55 | -27.41017 | 151.72843 | 1354 ft | 11 kts | 56° |
| 2026-04-25 04:55 | -27.40981 | 151.72861 | 1346 ft | 2 kts | 100° |
| 2026-04-25 04:55 | -27.40974 | 151.72870 | 1349 ft | 1 kts | 105° |
| 2026-04-25 04:55 | -27.40990 | 151.72944 | 1409 ft | 31 kts | 97° |
| 2026-04-25 04:56 | -27.41035 | 151.73234 | 1527 ft | 38 kts | 100° |
| 2026-04-25 04:56 | -27.41079 | 151.73512 | 1592 ft | 36 kts | 103° |
| 2026-04-25 04:56 | -27.40961 | 151.73689 | 1563 ft | 43 kts | 8° |
| 2026-04-25 04:56 | -27.40773 | 151.73423 | 1470 ft | 59 kts | 276° |
| 2026-04-25 04:57 | -27.40693 | 151.72886 | 1473 ft | 76 kts | 277° |
| 2026-04-25 04:57 | -27.40610 | 151.72328 | 1432 ft | 60 kts | 245° |
| 2026-04-25 04:57 | -27.40799 | 151.72198 | 1423 ft | 37 kts | 134° |
| 2026-04-25 04:57 | -27.40902 | 151.72406 | 1373 ft | 16 kts | 98° |
| 2026-04-25 04:58 | -27.40915 | 151.72485 | 1349 ft | 6 kts | 103° |
| 2026-04-25 04:58 | -27.40921 | 151.72527 | 1348 ft | 0 kts | 106° |
| 2026-04-25 04:58 | -27.40940 | 151.72614 | 1501 ft | 29 kts | 101° |
| 2026-04-25 04:58 | -27.41006 | 151.72950 | 1813 ft | 51 kts | 97° |
| 2026-04-25 04:59 | -27.41054 | 151.73307 | 1860 ft | 38 kts | 101° |
| 2026-04-25 04:59 | -27.41021 | 151.73521 | 1876 ft | 32 kts | 51° |
| 2026-04-25 04:59 | -27.40741 | 151.73350 | 1827 ft | 61 kts | 294° |
| 2026-04-25 04:59 | -27.40616 | 151.72877 | 1791 ft | 65 kts | 281° |
| 2026-04-25 05:00 | -27.40444 | 151.72395 | 1856 ft | 70 kts | 284° |
| 2026-04-25 05:00 | -27.40299 | 151.71865 | 1833 ft | 67 kts | 274° |
| 2026-04-25 05:00 | -27.40364 | 151.71432 | 1712 ft | 59 kts | 210° |
| 2026-04-25 05:00 | -27.40720 | 151.71341 | 1651 ft | 43 kts | 136° |
| 2026-04-25 05:01 | -27.40785 | 151.71604 | 1621 ft | 37 kts | 99° |
| 2026-04-25 05:01 | -27.40831 | 151.71895 | 1588 ft | 33 kts | 101° |
| 2026-04-25 05:01 | -27.40859 | 151.72099 | 1511 ft | 25 kts | 101° |
| 2026-04-25 05:01 | -27.40893 | 151.72317 | 1454 ft | 29 kts | 99° |
| 2026-04-25 05:02 | -27.40912 | 151.72460 | 1370 ft | 13 kts | 100° |
| 2026-04-25 05:02 | -27.40922 | 151.72519 | 1346 ft | 7 kts | 105° |
| 2026-04-25 05:02 | -27.40927 | 151.72534 | 1354 ft | 2 kts | 111° |
| 2026-04-25 05:02 | -27.40929 | 151.72536 | 1357 ft | 4 kts | 108° |
| 2026-04-25 05:03 | -27.40928 | 151.72550 | 1347 ft | 0 kts | 106° |
| 2026-04-25 05:03 | -27.40929 | 151.72560 | 1342 ft | 0 kts | 104° |
| 2026-04-25 05:03 | -27.40929 | 151.72561 | 1342 ft | 3 kts | 108° |
| 2026-04-25 05:03 | -27.40960 | 151.72744 | 1455 ft | 41 kts | 103° |
| 2026-04-25 05:04 | -27.41018 | 151.73099 | 1632 ft | 48 kts | 105° |
| 2026-04-25 05:04 | -27.41072 | 151.73489 | 1787 ft | 52 kts | 103° |
| 2026-04-25 05:04 | -27.41079 | 151.73907 | 1858 ft | 59 kts | 94° |
| 2026-04-25 05:04 | -27.41031 | 151.74403 | 1866 ft | 66 kts | 84° |
| 2026-04-25 05:05 | -27.40683 | 151.74703 | 1875 ft | 78 kts | 1° |
| 2026-04-25 05:05 | -27.40173 | 151.74324 | 1810 ft | 92 kts | 329° |
| 2026-04-25 05:05 | -27.39745 | 151.73794 | 1748 ft | 83 kts | 276° |
| 2026-04-25 05:05 | -27.40015 | 151.73489 | 1536 ft | 51 kts | 146° |
| 2026-04-25 05:06 | -27.40265 | 151.73699 | 1470 ft | 39 kts | 127° |
| 2026-04-25 05:06 | -27.40466 | 151.73856 | 1407 ft | 29 kts | 125° |
| 2026-04-25 05:06 | -27.40604 | 151.73962 | 1372 ft | 21 kts | 123° |
| 2026-04-25 05:06 | -27.40693 | 151.74033 | 1355 ft | 13 kts | 120° |
| 2026-04-25 05:07 | -27.40763 | 151.74009 | 1349 ft | 16 kts | 197° |
| 2026-04-25 05:07 | -27.40828 | 151.73913 | 1349 ft | 15 kts | 219° |
| 2026-04-25 05:07 | -27.40889 | 151.73830 | 1348 ft | 12 kts | 260° |
| 2026-04-25 05:07 | -27.40943 | 151.73737 | 1348 ft | 17 kts | 240° |
| 2026-04-25 05:08 | -27.41011 | 151.73618 | 1349 ft | 20 kts | 232° |
| 2026-04-25 05:08 | -27.41107 | 151.73486 | 1356 ft | 21 kts | 181° |
| 2026-04-25 05:08 | -27.41245 | 151.73453 | 1366 ft | 18 kts | 154° |
| 2026-04-25 05:08 | -27.41281 | 151.73340 | 1351 ft | 11 kts | 311° |
| 2026-04-25 05:09 | -27.41273 | 151.73280 | 1357 ft | 4 kts | 99° |
| 2026-04-25 05:09 | -27.41280 | 151.73314 | 1341 ft | 3 kts | 99° |
| 2026-04-25 05:09 | -27.41280 | 151.73329 | 1338 ft | 0 kts | 103° |